createdAt,value
2023-04-09T00:00:52.739Z,88.1001
2023-04-09T00:01:53.110Z,87.8491
2023-04-09T00:02:53.748Z,88.1128
2023-04-09T00:03:54.342Z,87.9442
2023-04-09T00:04:54.668Z,88.6273
2023-04-09T00:05:55.010Z,88.5496
2023-04-09T00:06:55.347Z,88.8582
2023-04-09T00:07:55.687Z,88.8890
2023-04-09T00:08:56.024Z,89.2923
2023-04-09T00:09:56.341Z,89.2898
2023-04-09T00:10:56.713Z,89.4544
2023-04-09T00:11:57.163Z,89.6282
2023-04-09T00:12:57.567Z,89.6452
2023-04-09T00:13:57.908Z,89.2693
2023-04-09T00:14:58.259Z,89.4528
2023-04-09T00:15:58.617Z,89.5340
2023-04-09T00:16:58.964Z,89.6328
2023-04-09T00:17:59.747Z,89.7921
2023-04-09T00:19:00.140Z,89.5117
2023-04-09T00:20:00.516Z,89.5662
2023-04-09T00:21:00.822Z,89.6625
2023-04-09T00:22:01.207Z,89.5081
2023-04-09T00:23:01.590Z,89.5519
2023-04-09T00:24:02.033Z,89.2388
2023-04-09T00:25:02.440Z,89.2883
2023-04-09T00:26:02.837Z,89.1395
2023-04-09T00:27:03.237Z,89.3280
2023-04-09T00:28:03.596Z,89.0916
2023-04-09T00:29:03.982Z,89.4075
2023-04-09T00:30:04.383Z,89.3001
2023-04-09T00:31:04.737Z,89.3229
2023-04-09T00:32:05.236Z,89.6117
2023-04-09T00:33:05.734Z,89.6192
2023-04-09T00:34:06.007Z,89.3753
2023-04-09T00:35:06.411Z,89.5615
2023-04-09T00:36:06.764Z,89.5681
2023-04-09T00:37:07.116Z,89.4570
2023-04-09T00:38:07.580Z,89.5041
2023-04-09T00:39:07.918Z,89.7461
2023-04-09T00:40:08.319Z,89.7893
2023-04-09T00:41:08.699Z,89.6103
2023-04-09T00:42:09.098Z,89.7571
2023-04-09T00:43:09.480Z,89.7130
2023-04-09T00:44:09.818Z,89.8550
2023-04-09T00:45:10.218Z,90.0308
2023-04-09T00:46:10.696Z,90.0259
2023-04-09T00:47:11.077Z,90.1643
2023-04-09T00:48:11.500Z,90.0360
2023-04-09T00:49:11.849Z,90.1589
2023-04-09T00:50:12.260Z,90.2171
2023-04-09T00:51:12.646Z,90.2262
2023-04-09T00:52:13.047Z,90.1670
2023-04-09T00:53:13.423Z,90.0572
2023-04-09T00:54:13.880Z,90.2156
2023-04-09T00:55:14.226Z,90.3922
2023-04-09T00:56:14.662Z,90.4826
2023-04-09T00:57:15.045Z,90.6433
2023-04-09T00:58:15.386Z,90.6574
2023-04-09T00:59:15.805Z,90.5426
2023-04-09T01:00:16.154Z,90.6672
2023-04-09T01:01:16.626Z,90.5585
2023-04-09T01:02:17.132Z,90.5846
2023-04-09T01:03:17.716Z,90.7916
2023-04-09T01:04:18.117Z,90.6709
2023-04-09T01:05:18.509Z,90.4673
2023-04-09T01:06:18.909Z,90.4648
2023-04-09T01:07:19.304Z,90.4435
2023-04-09T01:08:19.654Z,90.5569
2023-04-09T01:09:20.031Z,90.3670
2023-04-09T01:10:20.385Z,90.2247
2023-04-09T01:11:20.757Z,90.2791
2023-04-09T01:12:21.208Z,90.4423
2023-04-09T01:13:21.608Z,90.4116
2023-04-09T01:14:22.075Z,90.3897
2023-04-09T01:15:22.490Z,90.3315
2023-04-09T01:16:22.945Z,90.5335
2023-04-09T01:17:23.348Z,90.4258
2023-04-09T01:18:23.775Z,90.2456
2023-04-09T01:19:24.171Z,90.4715
2023-04-09T01:20:24.530Z,90.3169
2023-04-09T01:21:24.906Z,90.1951
2023-04-09T01:22:25.360Z,90.0188
2023-04-09T01:23:25.745Z,89.9078
2023-04-09T01:24:26.215Z,89.7061
2023-04-09T01:25:26.664Z,89.6606
2023-04-09T01:26:26.984Z,89.9492
2023-04-09T01:27:27.388Z,90.0045
2023-04-09T01:28:27.832Z,89.9917
2023-04-09T01:29:28.300Z,90.2849
2023-04-09T01:30:28.749Z,90.3849
2023-04-09T01:31:29.127Z,90.1975
2023-04-09T01:32:29.702Z,90.2369
2023-04-09T01:33:30.084Z,90.2914
2023-04-09T01:34:30.434Z,90.2582
2023-04-09T01:35:30.924Z,90.2230
2023-04-09T01:36:31.333Z,90.2748
2023-04-09T01:37:31.780Z,90.4699
2023-04-09T01:38:32.252Z,90.4194
2023-04-09T01:39:32.608Z,90.3153
2023-04-09T01:40:33.024Z,90.1596
2023-04-09T01:41:33.395Z,90.1586
2023-04-09T01:42:33.774Z,90.3212
2023-04-09T01:43:34.253Z,90.3629
2023-04-09T01:44:34.644Z,90.3932
2023-04-09T01:45:35.006Z,90.3316
2023-04-09T01:46:35.523Z,90.1809
2023-04-09T01:47:36.485Z,90.0814
2023-04-09T01:48:36.838Z,90.2129
2023-04-09T01:49:37.220Z,89.8994
2023-04-09T01:50:37.630Z,90.0117
2023-04-09T01:51:37.991Z,90.4156
2023-04-09T01:52:38.386Z,90.4717
2023-04-09T01:53:38.726Z,90.2008
2023-04-09T01:54:39.098Z,90.2623
2023-04-09T01:55:39.487Z,90.3365
2023-04-09T01:56:39.860Z,90.4207
2023-04-09T01:57:40.315Z,90.4014
2023-04-09T01:58:40.726Z,90.6130
2023-04-09T01:59:41.182Z,90.8649
2023-04-09T02:00:41.517Z,90.9158
2023-04-09T02:01:42.157Z,91.2391
2023-04-09T02:02:42.769Z,91.4592
2023-04-09T02:03:43.543Z,91.2633
2023-04-09T02:04:43.916Z,91.3462
2023-04-09T02:05:44.275Z,91.3760
2023-04-09T02:06:44.659Z,91.5831
2023-04-09T02:07:45.150Z,91.8723
2023-04-09T02:08:45.629Z,91.8298
2023-04-09T02:09:46.015Z,91.4807
2023-04-09T02:10:46.406Z,91.4652
2023-04-09T02:11:46.853Z,91.3927
2023-04-09T02:12:47.271Z,91.1686
2023-04-09T02:13:47.660Z,91.0227
2023-04-09T02:14:48.029Z,91.1953
2023-04-09T02:15:48.519Z,91.2765
2023-04-09T02:16:48.972Z,91.3890
2023-04-09T02:17:49.609Z,91.0351
2023-04-09T02:18:50.895Z,91.1427
2023-04-09T02:19:51.810Z,91.0182
2023-04-09T02:20:52.210Z,90.9293
2023-04-09T02:21:52.621Z,91.0740
2023-04-09T02:22:52.943Z,90.9444
2023-04-09T02:23:53.347Z,91.0988
2023-04-09T02:24:53.777Z,91.1063
2023-04-09T02:25:54.188Z,91.1512
2023-04-09T02:26:54.603Z,91.1072
2023-04-09T02:27:54.985Z,91.1780
2023-04-09T02:28:55.343Z,91.0670
2023-04-09T02:29:55.735Z,91.4827
2023-04-09T02:30:56.176Z,91.4819
2023-04-09T02:31:56.623Z,91.4201
2023-04-09T02:32:57.058Z,91.3607
2023-04-09T02:33:57.471Z,91.2689
2023-04-09T02:34:57.927Z,91.0307
2023-04-09T02:35:58.413Z,91.0056
2023-04-09T02:36:58.799Z,91.1528
2023-04-09T02:37:59.207Z,90.8235
2023-04-09T02:38:59.612Z,90.7554
2023-04-09T02:39:59.983Z,90.7382
2023-04-09T02:41:00.390Z,90.4796
2023-04-09T02:42:00.761Z,90.4919
2023-04-09T02:43:01.217Z,90.6967
2023-04-09T02:44:01.622Z,90.8206
2023-04-09T02:45:02.014Z,90.6854
2023-04-09T02:46:02.566Z,90.8466
2023-04-09T02:47:02.999Z,90.6327
2023-04-09T02:48:03.472Z,90.6868
2023-04-09T02:49:03.884Z,90.8380
2023-04-09T02:50:04.325Z,90.9650
2023-04-09T02:51:04.703Z,90.7197
2023-04-09T02:52:05.334Z,90.7054
2023-04-09T02:53:05.752Z,90.7119
2023-04-09T02:54:06.194Z,90.7067
2023-04-09T02:55:06.575Z,90.7050
2023-04-09T02:56:06.972Z,90.9042
2023-04-09T02:57:07.353Z,90.6504
2023-04-09T02:58:07.779Z,90.7549
2023-04-09T02:59:08.202Z,90.4008
2023-04-09T03:00:08.625Z,90.1771
2023-04-09T03:01:09.084Z,90.2406
2023-04-09T03:02:09.679Z,90.3528
2023-04-09T03:03:10.714Z,90.2854
2023-04-09T03:04:11.759Z,90.8240
2023-04-09T03:05:12.161Z,90.9046
2023-04-09T03:06:12.549Z,90.8617
2023-04-09T03:07:12.911Z,91.1270
2023-04-09T03:08:13.419Z,90.8672
2023-04-09T03:09:13.840Z,90.8125
2023-04-09T03:10:14.348Z,90.7831
2023-04-09T03:11:14.753Z,90.9383
2023-04-09T03:12:15.153Z,91.2187
2023-04-09T03:13:15.625Z,91.1352
2023-04-09T03:14:16.029Z,91.1515
2023-04-09T03:15:17.269Z,91.2872
2023-04-09T03:16:17.753Z,91.4100
2023-04-09T03:17:18.174Z,91.6713
2023-04-09T03:18:18.612Z,91.8496
2023-04-09T03:19:19.038Z,91.8233
2023-04-09T03:20:19.441Z,92.0843
2023-04-09T03:21:19.844Z,92.1331
2023-04-09T03:22:20.269Z,91.9870
2023-04-09T03:23:20.754Z,91.9472
2023-04-09T03:24:21.153Z,92.1504
2023-04-09T03:25:21.569Z,92.4539
2023-04-09T03:26:21.961Z,92.3529
2023-04-09T03:27:22.358Z,92.3886
2023-04-09T03:28:22.855Z,92.2966
2023-04-09T03:29:23.293Z,91.9465
2023-04-09T03:30:23.670Z,92.0257
2023-04-09T03:31:24.218Z,91.9755
2023-04-09T03:32:24.711Z,91.9702
2023-04-09T03:33:25.153Z,91.9612
2023-04-09T03:34:25.576Z,91.9457
2023-04-09T03:35:25.962Z,91.9838
2023-04-09T03:36:26.372Z,91.7174
2023-04-09T03:37:26.855Z,91.4450
2023-04-09T03:38:27.212Z,91.3068
2023-04-09T03:39:27.631Z,91.5669
2023-04-09T03:40:28.114Z,91.6748
2023-04-09T03:41:28.516Z,91.7249
2023-04-09T03:42:28.940Z,92.0263
2023-04-09T03:43:29.356Z,92.0992
2023-04-09T03:44:29.824Z,92.0112
2023-04-09T03:45:30.239Z,91.9811
2023-04-09T03:46:30.912Z,92.0178
2023-04-09T03:47:31.418Z,91.8908
2023-04-09T03:48:31.865Z,91.8288
2023-04-09T03:49:32.265Z,91.5663
2023-04-09T03:50:32.674Z,91.7085
2023-04-09T03:51:33.066Z,91.9422
2023-04-09T03:52:33.584Z,91.9605
2023-04-09T03:53:33.957Z,91.8493
2023-04-09T03:54:34.414Z,91.7720
2023-04-09T03:55:34.841Z,91.8287
2023-04-09T03:56:35.241Z,91.8347
2023-04-09T03:57:35.634Z,91.8882
2023-04-09T03:58:36.101Z,91.9993
2023-04-09T03:59:36.494Z,92.0470
2023-04-09T04:00:36.896Z,92.1343
2023-04-09T04:01:37.388Z,92.2542
2023-04-09T04:02:38.295Z,92.4526
2023-04-09T04:03:39.248Z,92.6457
2023-04-09T04:04:39.789Z,92.7368
2023-04-09T04:05:40.159Z,92.7521
2023-04-09T04:06:40.591Z,92.8311
2023-04-09T04:07:40.948Z,92.8790
2023-04-09T04:08:41.408Z,92.8791
2023-04-09T04:09:41.836Z,92.7624
2023-04-09T04:10:42.387Z,92.5950
2023-04-09T04:11:42.724Z,92.4701
2023-04-09T04:12:43.143Z,92.2396
2023-04-09T04:13:43.589Z,92.1218
2023-04-09T04:14:43.967Z,92.0286
2023-04-09T04:15:44.360Z,92.2436
2023-04-09T04:16:44.849Z,92.2692
2023-04-09T04:17:45.408Z,92.2068
2023-04-09T04:18:45.853Z,92.2949
2023-04-09T04:19:46.326Z,92.2721
2023-04-09T04:20:46.766Z,92.3852
2023-04-09T04:21:47.246Z,92.5128
2023-04-09T04:22:47.657Z,92.4622
2023-04-09T04:23:48.176Z,92.5590
2023-04-09T04:24:48.617Z,92.8146
2023-04-09T04:25:49.088Z,92.7867
2023-04-09T04:26:49.528Z,92.9470
2023-04-09T04:27:49.976Z,92.6603
2023-04-09T04:28:51.036Z,92.4425
2023-04-09T04:29:51.818Z,92.3370
2023-04-09T04:30:52.240Z,92.5643
2023-04-09T04:31:52.827Z,92.5809
2023-04-09T04:32:53.377Z,92.3307
2023-04-09T04:33:53.808Z,92.0330
2023-04-09T04:34:54.275Z,91.7385
2023-04-09T04:35:54.800Z,91.5977
2023-04-09T04:36:55.229Z,90.8803
2023-04-09T04:37:55.724Z,90.4765
2023-04-09T04:38:56.163Z,90.6641
2023-04-09T04:39:56.610Z,90.7953
2023-04-09T04:40:57.165Z,90.7304
2023-04-09T04:41:57.598Z,91.1232
2023-04-09T04:42:57.988Z,91.4273
2023-04-09T04:43:58.474Z,91.4426
2023-04-09T04:44:58.897Z,91.3565
2023-04-09T04:45:59.510Z,91.5503
2023-04-09T04:46:59.942Z,91.4207
2023-04-09T04:48:00.513Z,91.4017
2023-04-09T04:49:00.981Z,91.3255
2023-04-09T04:50:01.516Z,91.3113
2023-04-09T04:51:01.985Z,91.4316
2023-04-09T04:52:02.438Z,91.2068
2023-04-09T04:53:02.878Z,91.1868
2023-04-09T04:54:03.408Z,91.2291
2023-04-09T04:55:03.914Z,91.1542
2023-04-09T04:56:04.333Z,91.2495
2023-04-09T04:57:04.838Z,91.0761
2023-04-09T04:58:05.272Z,90.8277
2023-04-09T04:59:05.815Z,91.1211
2023-04-09T05:00:06.221Z,91.0626
2023-04-09T05:01:06.702Z,90.8372
2023-04-09T05:02:07.240Z,90.6203
2023-04-09T05:03:07.793Z,90.3621
2023-04-09T05:04:08.311Z,90.6115
2023-04-09T05:05:08.734Z,90.6825
2023-04-09T05:06:09.195Z,90.9093
2023-04-09T05:07:09.692Z,90.9140
2023-04-09T05:08:10.100Z,90.8171
2023-04-09T05:09:10.580Z,90.8141
2023-04-09T05:10:11.081Z,91.0081
2023-04-09T05:11:11.545Z,90.9393
2023-04-09T05:12:12.024Z,90.9811
2023-04-09T05:13:12.483Z,90.9542
2023-04-09T05:14:12.994Z,90.7914
2023-04-09T05:15:13.433Z,90.9329
2023-04-09T05:16:13.902Z,91.2098
2023-04-09T05:17:14.300Z,90.8789
2023-04-09T05:18:14.739Z,90.7236
2023-04-09T05:19:15.184Z,90.7868
2023-04-09T05:20:15.620Z,90.8944
2023-04-09T05:21:16.066Z,90.9931
2023-04-09T05:22:16.460Z,90.8753
2023-04-09T05:23:16.971Z,90.9471
2023-04-09T05:24:17.454Z,91.0241
2023-04-09T05:25:17.915Z,90.7783
2023-04-09T05:26:18.330Z,90.7912
2023-04-09T05:27:18.794Z,90.7751
2023-04-09T05:28:19.239Z,91.0337
2023-04-09T05:29:19.769Z,91.2735
2023-04-09T05:30:20.267Z,91.1232
2023-04-09T05:31:20.712Z,91.1045
2023-04-09T05:32:21.310Z,90.8826
2023-04-09T05:33:21.828Z,91.1944
2023-04-09T05:34:22.305Z,91.4967
2023-04-09T05:35:22.775Z,91.4688
2023-04-09T05:36:23.273Z,91.5226
2023-04-09T05:37:23.715Z,91.4155
2023-04-09T05:38:24.183Z,91.3841
2023-04-09T05:39:24.676Z,91.4642
2023-04-09T05:40:25.181Z,91.2536
2023-04-09T05:41:25.577Z,91.0440
2023-04-09T05:42:26.049Z,91.1397
2023-04-09T05:43:26.453Z,91.0796
2023-04-09T05:44:27.035Z,91.0589
2023-04-09T05:45:27.451Z,91.3907
2023-04-09T05:46:28.035Z,91.4528
2023-04-09T05:47:28.478Z,91.1830
2023-04-09T05:48:28.882Z,91.2106
2023-04-09T05:49:29.317Z,91.3449
2023-04-09T05:50:31.851Z,91.0854
2023-04-09T05:51:30.259Z,90.9472
2023-04-09T05:52:30.713Z,91.0347
2023-04-09T05:53:31.200Z,90.6760
2023-04-09T05:54:31.702Z,90.5825
2023-04-09T05:55:32.147Z,90.5079
2023-04-09T05:56:32.683Z,90.5008
2023-04-09T05:57:33.126Z,90.8215
2023-04-09T05:58:33.572Z,90.9559
2023-04-09T05:59:34.033Z,90.8512
2023-04-09T06:00:34.483Z,90.6846
2023-04-09T06:01:34.951Z,90.7173
2023-04-09T06:02:35.487Z,90.5390
2023-04-09T06:03:36.225Z,90.4323
2023-04-09T06:04:36.768Z,90.4732
2023-04-09T06:05:37.168Z,90.4268
2023-04-09T06:06:37.613Z,90.3134
2023-04-09T06:07:38.114Z,90.2754
2023-04-09T06:08:38.528Z,90.4228
2023-04-09T06:09:38.938Z,90.1549
2023-04-09T06:10:41.688Z,90.3129
2023-04-09T06:11:39.797Z,89.9113
2023-04-09T06:12:41.356Z,89.8941
2023-04-09T06:13:41.847Z,89.8712
2023-04-09T06:14:42.346Z,89.9886
2023-04-09T06:15:42.823Z,89.8788
2023-04-09T06:16:43.266Z,89.4503
2023-04-09T06:17:43.865Z,89.6376
2023-04-09T06:18:44.265Z,89.8831
2023-04-09T06:19:44.768Z,89.2045
2023-04-09T06:20:45.187Z,88.7787
2023-04-09T06:21:45.632Z,88.5801
2023-04-09T06:22:46.392Z,88.4994
2023-04-09T06:23:46.846Z,88.1169
2023-04-09T06:24:47.347Z,87.9103
2023-04-09T06:25:47.823Z,88.0285
2023-04-09T06:26:48.318Z,87.8343
2023-04-09T06:27:48.747Z,87.5375
2023-04-09T06:28:49.196Z,87.3198
2023-04-09T06:29:49.685Z,87.1983
2023-04-09T06:30:50.240Z,86.6592
2023-04-09T06:31:50.754Z,86.5579
2023-04-09T06:32:55.820Z,86.3316
2023-04-09T06:33:52.644Z,86.2691
2023-04-09T06:34:53.575Z,86.1865
2023-04-09T06:35:54.028Z,85.8684
2023-04-09T06:36:54.533Z,86.1932
2023-04-09T06:37:55.074Z,86.5718
2023-04-09T06:38:55.605Z,86.2120
2023-04-09T06:40:01.965Z,85.9047
2023-04-09T06:40:57.802Z,85.9553
2023-04-09T06:41:58.167Z,85.6601
2023-04-09T06:42:58.631Z,85.3916
2023-04-09T06:43:59.046Z,85.3912
2023-04-09T06:44:59.503Z,84.7629
2023-04-09T06:45:59.954Z,84.9007
2023-04-09T06:47:00.361Z,84.9331
2023-04-09T06:48:00.977Z,84.3877
2023-04-09T06:49:01.382Z,84.7175
2023-04-09T06:50:01.858Z,84.7684
2023-04-09T06:51:02.485Z,84.4780
2023-04-09T06:52:03.098Z,84.6835
2023-04-09T06:53:03.461Z,84.2597
2023-04-09T06:54:04.010Z,84.1304
2023-04-09T06:55:04.473Z,84.1626
2023-04-09T06:56:04.904Z,83.4833
2023-04-09T06:57:05.412Z,84.1808
2023-04-09T06:58:05.843Z,83.9507
2023-04-09T06:59:06.221Z,83.8911
2023-04-09T07:00:06.757Z,84.0520
2023-04-09T07:01:07.226Z,84.1210
2023-04-09T07:02:07.898Z,83.9261
2023-04-09T07:03:08.644Z,83.2955
2023-04-09T07:04:09.243Z,83.5620
2023-04-09T07:05:09.733Z,83.9374
2023-04-09T07:06:10.143Z,84.1634
2023-04-09T07:07:10.780Z,83.8800
2023-04-09T07:08:11.139Z,83.4436
2023-04-09T07:09:11.519Z,83.0836
2023-04-09T07:10:11.955Z,82.9494
2023-04-09T07:11:12.363Z,82.4975
2023-04-09T07:12:12.770Z,82.8109
2023-04-09T07:13:13.213Z,82.6631
2023-04-09T07:14:13.610Z,82.5051
2023-04-09T07:15:14.951Z,82.1711
2023-04-09T07:16:15.513Z,82.2747
2023-04-09T07:17:15.870Z,82.2907
2023-04-09T07:18:16.279Z,81.8933
2023-04-09T07:19:16.708Z,81.9805
2023-04-09T07:20:17.151Z,81.7000
2023-04-09T07:21:17.527Z,81.4267
2023-04-09T07:22:17.880Z,81.2539
2023-04-09T07:23:18.364Z,81.0467
2023-04-09T07:24:18.797Z,80.8272
2023-04-09T07:25:19.190Z,81.1729
2023-04-09T07:26:19.607Z,81.4074
2023-04-09T07:27:20.034Z,81.2190
2023-04-09T07:28:21.402Z,80.9788
2023-04-09T07:29:21.794Z,80.6871
2023-04-09T07:30:22.166Z,80.5634
2023-04-09T07:31:22.595Z,80.6530
2023-04-09T07:32:23.013Z,80.0698
2023-04-09T07:33:23.401Z,79.7757
2023-04-09T07:34:23.764Z,80.1639
2023-04-09T07:35:24.175Z,79.8256
2023-04-09T07:36:24.766Z,79.9573
2023-04-09T07:37:25.186Z,79.9494
2023-04-09T07:38:25.551Z,79.8613
2023-04-09T07:39:26.048Z,79.3186
2023-04-09T07:40:26.643Z,79.3217
2023-04-09T07:41:27.014Z,79.5062
2023-04-09T07:42:27.952Z,79.4762
2023-04-09T07:43:28.332Z,79.5333
2023-04-09T07:44:28.660Z,78.7712
2023-04-09T07:45:29.367Z,79.1233
2023-04-09T07:46:29.904Z,79.0110
2023-04-09T07:47:30.293Z,79.0329
2023-04-09T07:48:31.659Z,79.5298
2023-04-09T07:49:32.099Z,79.7486
2023-04-09T07:50:32.630Z,80.1154
2023-04-09T07:51:33.019Z,80.2623
2023-04-09T07:52:33.411Z,80.5250
2023-04-09T07:53:33.778Z,80.3568
2023-04-09T07:54:34.139Z,79.5967
2023-04-09T07:55:34.560Z,79.9506
2023-04-09T07:56:34.961Z,79.4564
2023-04-09T07:57:35.348Z,79.6044
2023-04-09T07:58:35.922Z,79.2898
2023-04-09T07:59:36.399Z,79.4025
2023-04-09T08:00:36.985Z,79.3633
2023-04-09T08:01:37.532Z,78.3534
2023-04-09T08:02:38.568Z,79.4769
2023-04-09T08:03:39.732Z,79.5894
2023-04-09T08:04:40.353Z,80.0768
2023-04-09T08:05:40.760Z,80.0708
2023-04-09T08:06:41.273Z,79.9920
2023-04-09T08:07:41.684Z,79.7982
2023-04-09T08:08:42.082Z,79.4300
2023-04-09T08:09:42.491Z,79.9777
2023-04-09T08:10:42.960Z,79.9043
2023-04-09T08:11:43.342Z,80.3158
2023-04-09T08:12:43.819Z,80.1897
2023-04-09T08:13:44.260Z,80.0881
2023-04-09T08:14:44.702Z,80.2724
2023-04-09T08:15:45.154Z,80.6376
2023-04-09T08:16:45.653Z,80.4073
2023-04-09T08:17:46.167Z,80.2879
2023-04-09T08:18:46.570Z,79.6747
2023-04-09T08:19:47.085Z,77.9826
2023-04-09T08:20:47.460Z,77.2026
2023-04-09T08:21:47.870Z,77.5738
2023-04-09T08:22:48.185Z,78.3313
2023-04-09T08:23:48.628Z,77.9382
2023-04-09T08:24:48.992Z,77.3897
2023-04-09T08:25:49.370Z,77.2169
2023-04-09T08:26:49.745Z,76.2942
2023-04-09T08:27:50.108Z,76.8035
2023-04-09T08:28:50.817Z,76.9427
2023-04-09T08:29:51.370Z,76.4963
2023-04-09T08:30:51.841Z,76.9623
2023-04-09T08:31:52.235Z,76.7829
2023-04-09T08:32:52.628Z,77.0355
2023-04-09T08:33:52.971Z,77.0895
2023-04-09T08:34:53.370Z,76.7487
2023-04-09T08:35:53.830Z,76.9008
2023-04-09T08:36:54.300Z,76.9595
2023-04-09T08:37:54.658Z,77.1652
2023-04-09T08:38:56.155Z,76.8646
2023-04-09T08:39:56.891Z,76.3761
2023-04-09T08:40:57.370Z,76.0857
2023-04-09T08:41:57.830Z,76.1322
2023-04-09T08:42:58.213Z,76.0930
2023-04-09T08:44:00.367Z,76.3684
2023-04-09T08:45:00.771Z,76.5706
2023-04-09T08:46:01.253Z,75.9551
2023-04-09T08:47:01.641Z,76.1315
2023-04-09T08:48:02.283Z,76.1438
2023-04-09T08:49:02.626Z,75.6391
2023-04-09T08:50:03.022Z,75.1716
2023-04-09T08:51:03.419Z,74.7713
2023-04-09T08:52:03.781Z,74.5615
2023-04-09T08:53:04.470Z,74.5420
2023-04-09T08:54:05.895Z,74.3113
2023-04-09T08:55:06.384Z,74.2428
2023-04-09T08:56:06.743Z,73.6403
2023-04-09T08:57:07.193Z,73.8975
2023-04-09T08:58:07.671Z,74.0520
2023-04-09T08:59:08.099Z,73.7959
2023-04-09T09:00:08.562Z,74.4724
2023-04-09T09:01:09.045Z,74.3312
2023-04-09T09:02:09.625Z,74.3736
2023-04-09T09:03:10.481Z,74.2167
2023-04-09T09:04:11.361Z,73.9130
2023-04-09T09:05:11.791Z,73.8133
2023-04-09T09:06:12.246Z,73.8879
2023-04-09T09:07:12.710Z,74.0034
2023-04-09T09:08:13.186Z,73.7137
2023-04-09T09:09:13.622Z,73.5229
2023-04-09T09:10:14.061Z,73.4424
2023-04-09T09:11:14.551Z,73.1712
2023-04-09T09:12:15.026Z,72.7896
2023-04-09T09:13:15.475Z,72.4757
2023-04-09T09:14:16.090Z,72.5512
2023-04-09T09:15:16.546Z,72.4900
2023-04-09T09:16:17.070Z,72.6842
2023-04-09T09:17:17.643Z,72.8710
2023-04-09T09:18:18.085Z,72.7771
2023-04-09T09:19:18.528Z,72.2648
2023-04-09T09:20:18.953Z,72.6295
2023-04-09T09:21:19.554Z,72.1951
2023-04-09T09:22:20.016Z,71.6350
2023-04-09T09:23:20.562Z,71.4156
2023-04-09T09:24:21.037Z,71.2597
2023-04-09T09:25:21.516Z,71.0541
2023-04-09T09:26:21.967Z,71.4518
2023-04-09T09:27:22.428Z,71.3789
2023-04-09T09:28:22.882Z,71.0458
2023-04-09T09:29:23.343Z,70.8802
2023-04-09T09:30:23.818Z,70.8520
2023-04-09T09:31:24.520Z,70.7799
2023-04-09T09:32:25.108Z,70.6770
2023-04-09T09:33:26.597Z,70.2474
2023-04-09T09:34:27.043Z,69.8317
2023-04-09T09:35:27.484Z,69.3750
2023-04-09T09:36:27.914Z,69.2735
2023-04-09T09:37:28.415Z,69.4218
2023-04-09T09:38:28.840Z,68.9627
2023-04-09T09:39:29.327Z,68.9967
2023-04-09T09:40:29.769Z,69.1285
2023-04-09T09:41:30.215Z,68.9909
2023-04-09T09:42:30.671Z,68.7635
2023-04-09T09:43:31.113Z,68.6806
2023-04-09T09:44:31.922Z,68.2050
2023-04-09T09:45:32.673Z,67.7045
2023-04-09T09:46:33.420Z,67.6382
2023-04-09T09:47:33.921Z,67.8632
2023-04-09T09:48:34.314Z,67.2022
2023-04-09T09:49:34.753Z,67.0991
2023-04-09T09:50:35.239Z,67.1727
2023-04-09T09:51:35.677Z,67.0811
2023-04-09T09:52:36.074Z,66.9738
2023-04-09T09:53:36.514Z,67.2019
2023-04-09T09:54:36.965Z,66.8957
2023-04-09T09:55:37.413Z,66.5759
2023-04-09T09:56:37.908Z,66.7893
2023-04-09T09:57:38.266Z,66.9394
2023-04-09T09:58:38.709Z,67.0735
2023-04-09T09:59:39.150Z,67.2085
2023-04-09T10:00:39.580Z,67.3735
2023-04-09T10:01:40.104Z,67.1871
2023-04-09T10:02:40.871Z,66.4600
2023-04-09T10:03:41.314Z,66.2036
2023-04-09T10:04:41.821Z,66.0285
2023-04-09T10:05:42.300Z,65.9817
2023-04-09T10:06:42.831Z,65.9840
2023-04-09T10:07:43.238Z,65.7559
2023-04-09T10:08:43.809Z,65.7098
2023-04-09T10:09:44.420Z,65.3840
2023-04-09T10:10:44.878Z,65.8057
2023-04-09T10:11:45.289Z,65.1275
2023-04-09T10:12:45.654Z,64.8719
2023-04-09T10:13:46.123Z,64.4896
2023-04-09T10:14:46.611Z,64.3861
2023-04-09T10:15:47.105Z,65.1018
2023-04-09T10:16:47.525Z,65.1399
2023-04-09T10:17:48.032Z,65.6712
2023-04-09T10:18:48.540Z,65.4562
2023-04-09T10:19:48.957Z,65.2107
2023-04-09T10:20:49.495Z,64.5369
2023-04-09T10:21:49.867Z,64.9545
2023-04-09T10:22:50.292Z,64.1814
2023-04-09T10:23:50.807Z,64.4906
2023-04-09T10:24:51.181Z,64.4609
2023-04-09T10:25:51.553Z,64.0660
2023-04-09T10:26:51.975Z,64.4254
2023-04-09T10:27:52.410Z,64.5247
2023-04-09T10:28:53.044Z,64.4615
2023-04-09T10:29:53.513Z,63.4421
2023-04-09T10:30:54.049Z,63.1415
2023-04-09T10:31:54.458Z,62.8244
2023-04-09T10:32:55.058Z,62.9875
2023-04-09T10:33:55.442Z,62.4113
2023-04-09T10:34:55.857Z,61.7174
2023-04-09T10:35:56.302Z,61.4743
2023-04-09T10:36:56.689Z,61.1262
2023-04-09T10:37:57.149Z,61.4380
2023-04-09T10:38:57.636Z,61.2860
2023-04-09T10:39:58.256Z,60.9112
2023-04-09T10:40:58.708Z,61.3183
2023-04-09T10:41:59.195Z,60.7152
2023-04-09T10:42:59.674Z,60.4825
2023-04-09T10:44:00.063Z,62.2203
2023-04-09T10:45:00.481Z,61.2751
2023-04-09T10:46:00.942Z,60.1434
2023-04-09T10:47:01.414Z,59.8359
2023-04-09T10:48:01.915Z,59.6906
2023-04-09T10:49:02.396Z,59.6376
2023-04-09T10:50:02.888Z,59.3306
2023-04-09T10:51:03.363Z,59.1316
2023-04-09T10:52:03.789Z,58.6745
2023-04-09T10:53:04.185Z,59.5392
2023-04-09T10:54:04.632Z,59.5625
2023-04-09T10:55:05.129Z,58.0837
2023-04-09T10:56:05.576Z,57.5650
2023-04-09T10:57:05.973Z,57.1677
2023-04-09T10:58:06.624Z,57.5418
2023-04-09T10:59:07.535Z,58.5876
2023-04-09T11:00:08.004Z,58.5962
2023-04-09T11:01:08.370Z,58.0227
2023-04-09T11:02:09.102Z,58.5821
2023-04-09T11:03:10.077Z,58.4225
2023-04-09T11:04:11.158Z,57.3237
2023-04-09T11:05:11.672Z,57.5854
2023-04-09T11:06:12.069Z,58.4694
2023-04-09T11:07:12.544Z,58.2518
2023-04-09T11:08:12.882Z,58.1246
2023-04-09T11:09:13.341Z,57.5909
2023-04-09T11:10:13.749Z,58.3760
2023-04-09T11:11:14.236Z,58.7317
2023-04-09T11:12:14.721Z,56.7846
2023-04-09T11:13:15.112Z,56.8245
2023-04-09T11:14:15.656Z,56.0486
2023-04-09T11:15:16.054Z,56.2742
2023-04-09T11:16:24.095Z,55.4248
2023-04-09T11:17:16.844Z,54.9408
2023-04-09T11:18:17.343Z,54.5464
2023-04-09T11:19:17.794Z,53.8307
2023-04-09T11:20:18.155Z,55.2885
2023-04-09T11:21:18.673Z,54.5160
2023-04-09T11:22:19.017Z,54.2602
2023-04-09T11:23:19.370Z,54.3585
2023-04-09T11:24:19.794Z,54.6804
2023-04-09T11:25:20.182Z,54.0977
2023-04-09T11:26:20.641Z,54.1431
2023-04-09T11:27:21.087Z,53.9987
2023-04-09T11:28:21.556Z,54.0707
2023-04-09T11:29:21.866Z,53.3712
2023-04-09T11:30:22.241Z,53.9062
2023-04-09T11:31:22.633Z,54.1705
2023-04-09T11:32:23.200Z,54.7842
2023-04-09T11:33:23.506Z,53.5378
2023-04-09T11:34:23.857Z,53.3401
2023-04-09T11:35:24.197Z,53.1014
2023-04-09T11:36:24.575Z,51.7819
2023-04-09T11:37:25.013Z,51.5162
2023-04-09T11:38:25.377Z,51.2917
2023-04-09T11:39:25.764Z,52.5625
2023-04-09T11:40:26.073Z,51.6633
2023-04-09T11:41:26.523Z,51.0088
2023-04-09T11:42:26.901Z,52.6419
2023-04-09T11:43:27.228Z,52.3617
2023-04-09T11:44:27.555Z,50.2122
2023-04-09T11:45:27.893Z,48.4854
2023-04-09T11:46:28.256Z,49.1977
2023-04-09T11:47:28.627Z,49.8878
2023-04-09T11:48:28.940Z,48.7182
2023-04-09T11:49:29.369Z,50.2512
2023-04-09T11:50:29.707Z,47.7581
2023-04-09T11:51:30.065Z,44.5120
2023-04-09T11:52:30.372Z,43.5579
2023-04-09T11:53:30.729Z,40.9813
2023-04-09T11:54:30.988Z,40.5743
2023-04-09T11:55:31.343Z,42.2255
2023-04-09T11:56:31.598Z,40.2180
2023-04-09T11:57:31.828Z,39.9937
2023-04-09T11:58:32.130Z,42.0074
2023-04-09T11:59:32.507Z,39.7749
2023-04-09T12:00:32.763Z,37.0800
2023-04-09T12:01:33.111Z,39.8587
2023-04-09T12:02:33.782Z,42.4469
2023-04-09T12:03:35.025Z,44.9736
2023-04-09T12:04:35.658Z,43.5142
2023-04-09T12:05:35.866Z,42.9438
2023-04-09T12:06:36.048Z,40.4898
2023-04-09T12:07:36.261Z,39.0468
2023-04-09T12:08:36.407Z,43.5646
2023-04-09T12:09:36.652Z,41.2727
2023-04-09T12:10:36.799Z,38.4704
2023-04-09T12:11:36.990Z,38.9633